createdAt,value
2022-09-11T00:02:24.172Z,1.00
2022-09-11T00:04:52.438Z,1.43
2022-09-11T00:07:20.668Z,1.27
2022-09-11T00:09:49.038Z,0.80
2022-09-11T00:12:17.351Z,1.70
2022-09-11T00:14:45.558Z,1.00
2022-09-11T00:17:18.345Z,1.33
2022-09-11T00:19:46.707Z,1.37
2022-09-11T00:22:14.922Z,1.30
2022-09-11T00:24:43.143Z,1.40
2022-09-11T00:27:11.347Z,1.50
2022-09-11T00:29:39.551Z,1.00
2022-09-11T00:32:07.825Z,1.57
2022-09-11T00:34:37.466Z,1.70
2022-09-11T00:37:05.706Z,1.43
2022-09-11T00:39:33.890Z,1.33
2022-09-11T00:42:02.131Z,0.93
2022-09-11T00:44:49.194Z,1.20
2022-09-11T00:47:18.616Z,2.50
2022-09-11T00:49:51.007Z,1.53
2022-09-11T00:52:22.375Z,1.13
2022-09-11T00:54:51.769Z,1.20
2022-09-11T00:57:23.075Z,1.27
2022-09-11T00:59:54.554Z,1.37
2022-09-11T01:02:27.510Z,1.30
2022-09-11T01:04:57.532Z,2.13
2022-09-11T01:07:26.401Z,1.80
2022-09-11T01:09:55.803Z,1.07
2022-09-11T01:12:27.940Z,1.40
2022-09-11T01:14:59.054Z,1.30
2022-09-11T01:17:28.927Z,1.27
2022-09-11T01:20:14.968Z,0.90
2022-09-11T01:22:53.694Z,1.20
2022-09-11T01:25:27.848Z,1.10
2022-09-11T01:27:58.762Z,1.13
2022-09-11T01:30:29.718Z,1.10
2022-09-11T01:33:11.631Z,1.00
2022-09-11T01:35:43.781Z,1.17
2022-09-11T01:38:15.136Z,1.63
2022-09-11T01:40:46.855Z,1.37
2022-09-11T01:43:17.882Z,1.20
2022-09-11T01:45:47.305Z,1.10
2022-09-11T01:48:17.822Z,2.00
2022-09-11T01:50:47.798Z,1.43
2022-09-11T01:53:18.243Z,1.20
2022-09-11T01:55:49.055Z,1.10
2022-09-11T01:58:22.464Z,1.70
2022-09-11T02:00:52.993Z,1.30
2022-09-11T02:03:23.165Z,1.30
2022-09-11T02:05:54.450Z,1.30
2022-09-11T02:08:27.016Z,1.53
2022-09-11T02:10:57.131Z,1.43
2022-09-11T02:13:30.554Z,1.67
2022-09-11T02:16:01.754Z,1.40
2022-09-11T02:18:37.508Z,1.93
2022-09-11T02:21:05.835Z,1.70
2022-09-11T02:23:34.066Z,1.90
2022-09-11T02:26:02.705Z,1.57
2022-09-11T02:28:32.326Z,1.40
2022-09-11T02:31:02.462Z,2.07
2022-09-11T02:33:32.481Z,1.10
2022-09-11T02:36:10.339Z,1.27
2022-09-11T02:38:42.562Z,1.40
2022-09-11T02:41:14.068Z,1.57
2022-09-11T02:43:49.703Z,1.27
2022-09-11T02:46:35.446Z,1.40
2022-09-11T02:49:10.791Z,1.90
2022-09-11T02:51:41.243Z,1.53
2022-09-11T02:54:18.478Z,2.83
2022-09-11T02:56:48.581Z,1.20
2022-09-11T02:59:19.383Z,1.43
2022-09-11T03:01:48.865Z,2.07
2022-09-11T03:04:18.282Z,1.90
2022-09-11T03:06:48.635Z,1.60
2022-09-11T03:09:17.021Z,1.50
2022-09-11T03:11:45.461Z,1.57
2022-09-11T03:14:14.254Z,1.20
2022-09-11T03:16:43.839Z,1.63
2022-09-11T03:19:13.027Z,1.73
2022-09-11T03:21:42.645Z,1.47
2022-09-11T03:24:13.090Z,1.37
2022-09-11T03:26:41.529Z,1.60
2022-09-11T03:29:09.747Z,1.60
2022-09-11T03:31:39.442Z,2.00
2022-09-11T03:34:10.317Z,1.40
2022-09-11T03:36:38.682Z,1.60
2022-09-11T03:39:06.998Z,1.40
2022-09-11T03:41:35.218Z,1.67
2022-09-11T03:44:03.499Z,2.00
2022-09-11T03:46:32.990Z,1.50
2022-09-11T03:49:01.314Z,1.57
2022-09-11T03:51:32.011Z,2.40
2022-09-11T03:54:01.552Z,1.70
2022-09-11T03:56:30.166Z,1.50
2022-09-11T03:59:00.120Z,2.10
2022-09-11T04:01:29.027Z,2.53
2022-09-11T04:03:57.347Z,1.70
2022-09-11T04:06:25.563Z,2.07
2022-09-11T04:08:55.111Z,1.63
2022-09-11T04:11:23.518Z,1.80
2022-09-11T04:13:52.125Z,1.87
2022-09-11T04:16:21.246Z,1.83
2022-09-11T04:18:49.517Z,1.60
2022-09-11T04:21:18.347Z,1.90
2022-09-11T04:23:46.578Z,1.73
2022-09-11T04:26:16.558Z,1.87
2022-09-11T04:28:44.980Z,2.53
2022-09-11T04:31:13.389Z,1.37
2022-09-11T04:33:41.741Z,1.87
2022-09-11T04:36:11.240Z,1.57
2022-09-11T04:38:41.380Z,1.67
2022-09-11T04:41:09.802Z,2.10
2022-09-11T04:43:41.420Z,1.80
2022-09-11T04:46:12.020Z,1.90
2022-09-11T04:48:44.891Z,1.90
2022-09-11T04:51:14.212Z,2.10
2022-09-11T04:53:42.495Z,1.50
2022-09-11T04:56:12.294Z,1.57
2022-09-11T04:58:42.931Z,1.60
2022-09-11T05:01:13.157Z,2.00
2022-09-11T05:03:41.479Z,1.43
2022-09-11T05:06:10.721Z,1.83
2022-09-11T05:08:38.976Z,1.93
2022-09-11T05:11:07.359Z,1.40
2022-09-11T05:13:36.724Z,2.00
2022-09-11T05:16:06.779Z,1.73
2022-09-11T05:18:35.001Z,1.40
2022-09-11T05:21:03.586Z,1.83
2022-09-11T05:23:32.963Z,1.70
2022-09-11T05:26:01.648Z,1.80
2022-09-11T05:28:30.360Z,2.00
2022-09-11T05:30:59.565Z,1.47
2022-09-11T05:33:29.540Z,2.03
2022-09-11T05:36:04.322Z,1.70
2022-09-11T05:38:32.733Z,1.90
2022-09-11T05:41:00.944Z,1.77
2022-09-11T05:43:29.185Z,1.53
2022-09-11T05:45:58.127Z,1.30
2022-09-11T05:48:26.653Z,1.43
2022-09-11T05:50:56.653Z,1.83
2022-09-11T05:53:25.018Z,1.70
2022-09-11T05:55:53.897Z,1.57
2022-09-11T05:58:22.809Z,1.57
2022-09-11T06:00:51.174Z,1.53
2022-09-11T06:03:19.947Z,2.20
2022-09-11T06:05:48.182Z,1.80
2022-09-11T06:08:17.726Z,1.57
2022-09-11T06:10:47.592Z,1.63
2022-09-11T06:13:17.889Z,1.60
2022-09-11T06:15:47.316Z,1.50
2022-09-11T06:18:15.974Z,1.10
2022-09-11T06:20:44.210Z,1.40
2022-09-11T06:23:12.802Z,1.80
2022-09-11T06:25:42.399Z,2.17
2022-09-11T06:28:11.428Z,2.00
2022-09-11T06:30:39.902Z,2.30
2022-09-11T06:33:08.111Z,2.00
2022-09-11T06:35:36.310Z,1.83
2022-09-11T06:38:05.595Z,1.50
2022-09-11T06:40:33.835Z,2.00
2022-09-11T06:43:05.269Z,1.70
2022-09-11T06:45:33.846Z,2.00
2022-09-11T06:48:02.054Z,2.10
2022-09-11T06:50:33.955Z,2.30
2022-09-11T06:53:04.956Z,2.93
2022-09-11T06:55:33.447Z,2.03
2022-09-11T06:58:03.316Z,1.60
2022-09-11T07:00:32.094Z,2.90
2022-09-11T07:03:02.069Z,2.03
2022-09-11T07:05:31.269Z,2.17
2022-09-11T07:07:59.776Z,2.37
2022-09-11T07:10:28.262Z,2.00
2022-09-11T07:12:57.948Z,2.73
2022-09-11T07:15:27.802Z,2.60
2022-09-11T07:17:56.333Z,1.90
2022-09-11T07:20:25.193Z,1.63
2022-09-11T07:22:53.662Z,2.20
2022-09-11T07:25:22.191Z,2.17
2022-09-11T07:27:51.871Z,2.43
2022-09-11T07:30:20.743Z,2.00
2022-09-11T07:32:50.844Z,1.80
2022-09-11T07:35:21.705Z,2.00
2022-09-11T07:37:51.013Z,1.83
2022-09-11T07:40:19.303Z,2.27
2022-09-11T07:42:47.537Z,1.80
2022-09-11T07:45:22.063Z,2.10
2022-09-11T07:47:52.218Z,2.10
2022-09-11T07:50:20.445Z,2.10
2022-09-11T07:52:48.719Z,2.00
2022-09-11T07:55:17.033Z,2.53
2022-09-11T07:57:45.522Z,2.43
2022-09-11T08:00:16.231Z,2.00
2022-09-11T08:02:44.418Z,2.67
2022-09-11T08:05:13.968Z,1.53
2022-09-11T08:07:42.210Z,2.60
2022-09-11T08:10:26.508Z,2.53
2022-09-11T08:12:59.342Z,2.90
2022-09-11T08:15:28.179Z,3.00
2022-09-11T08:17:56.397Z,2.40
2022-09-11T08:20:25.934Z,2.87
2022-09-11T08:22:54.555Z,3.33
2022-09-11T08:25:23.848Z,2.60
2022-09-11T08:27:53.095Z,2.23
2022-09-11T08:30:21.841Z,3.80
2022-09-11T08:32:50.060Z,2.30
2022-09-11T08:35:18.262Z,3.10
2022-09-11T08:37:50.560Z,2.40
2022-09-11T08:40:22.273Z,2.17
2022-09-11T08:42:52.224Z,2.97
2022-09-11T08:45:22.114Z,3.50
2022-09-11T08:47:52.650Z,3.00
2022-09-11T08:50:23.571Z,2.63
2022-09-11T08:52:55.330Z,3.70
2022-09-11T08:55:30.057Z,3.17
2022-09-11T08:58:02.147Z,4.17
2022-09-11T09:00:36.899Z,3.40
2022-09-11T09:03:30.154Z,5.03
2022-09-11T09:06:00.565Z,4.47
2022-09-11T09:08:37.926Z,4.13
2022-09-11T09:11:09.492Z,4.20
2022-09-11T09:13:45.623Z,3.77
2022-09-11T09:16:21.510Z,4.70
2022-09-11T09:18:51.681Z,4.20
2022-09-11T09:21:24.490Z,4.30
2022-09-11T09:23:55.980Z,4.10
2022-09-11T09:26:28.273Z,3.60
2022-09-11T09:28:58.384Z,3.20
2022-09-11T09:31:29.427Z,4.20
2022-09-11T09:34:01.924Z,5.13
2022-09-11T09:36:32.007Z,5.33
2022-09-11T09:39:01.810Z,3.67
2022-09-11T09:41:46.109Z,4.93
2022-09-11T09:44:19.628Z,4.80
2022-09-11T09:46:51.216Z,5.03
2022-09-11T09:49:22.134Z,4.40
2022-09-11T09:51:51.145Z,4.33
2022-09-11T09:54:23.281Z,5.03
2022-09-11T09:56:55.961Z,4.47
2022-09-11T09:59:26.667Z,4.57
2022-09-11T10:01:56.359Z,3.90
2022-09-11T10:04:26.056Z,4.37
2022-09-11T10:06:55.334Z,4.47
2022-09-11T10:09:26.748Z,3.67
2022-09-11T10:11:57.690Z,4.60
2022-09-11T10:14:49.993Z,4.10
2022-09-11T10:17:21.334Z,4.10
2022-09-11T10:19:50.846Z,3.37
2022-09-11T10:22:24.416Z,4.00
2022-09-11T10:25:08.010Z,4.30
2022-09-11T10:27:41.166Z,3.33
2022-09-11T10:30:24.842Z,4.60
2022-09-11T10:32:53.251Z,4.90
2022-09-11T10:35:21.970Z,4.00
2022-09-11T10:38:00.911Z,3.43
2022-09-11T10:40:30.999Z,3.90
2022-09-11T10:42:59.237Z,3.60
2022-09-11T10:45:27.659Z,3.30
2022-09-11T10:47:55.897Z,3.33
2022-09-11T10:50:25.906Z,2.93
2022-09-11T10:53:04.315Z,3.80
2022-09-11T10:55:36.294Z,3.47
2022-09-11T10:58:07.054Z,3.40
2022-09-11T11:00:35.822Z,3.73
2022-09-11T11:03:07.292Z,3.50
2022-09-11T11:05:39.775Z,3.77
2022-09-11T11:08:20.169Z,3.33
2022-09-11T11:10:59.104Z,3.47
2022-09-11T11:13:39.251Z,3.97
2022-09-11T11:16:10.693Z,3.77
2022-09-11T11:18:50.334Z,3.30
2022-09-11T11:21:23.456Z,3.40
2022-09-11T11:23:53.766Z,3.53
2022-09-11T11:26:39.944Z,3.50
2022-09-11T11:29:25.827Z,3.13
2022-09-11T11:32:02.433Z,3.47
2022-09-11T11:34:38.142Z,3.60
2022-09-11T11:37:10.843Z,3.10
2022-09-11T11:39:44.496Z,2.90
2022-09-11T11:42:15.069Z,2.57
2022-09-11T11:44:46.566Z,3.40
2022-09-11T11:47:17.550Z,3.37
2022-09-11T11:49:52.896Z,3.33
2022-09-11T11:52:26.885Z,3.40
2022-09-11T11:54:58.130Z,2.90
2022-09-11T11:57:31.108Z,3.40
2022-09-11T12:00:01.418Z,3.07
2022-09-11T12:02:33.382Z,3.10
2022-09-11T12:05:03.463Z,3.70
2022-09-11T12:07:33.138Z,2.43
2022-09-11T12:10:02.561Z,3.10
2022-09-11T12:12:32.314Z,3.10
2022-09-11T12:15:04.238Z,3.23
2022-09-11T12:17:34.600Z,2.90
2022-09-11T12:20:17.137Z,3.10
2022-09-11T12:22:46.791Z,2.30
2022-09-11T12:25:39.251Z,2.83
2022-09-11T12:28:11.517Z,2.30
2022-09-11T12:30:59.226Z,3.47
2022-09-11T12:33:47.223Z,3.23
2022-09-11T12:36:17.588Z,2.97
2022-09-11T12:38:47.960Z,2.80
2022-09-11T12:41:17.593Z,3.10
2022-09-11T12:43:50.296Z,3.47
2022-09-11T12:46:34.570Z,3.13
2022-09-11T12:49:21.994Z,3.00
2022-09-11T12:51:55.074Z,3.40
2022-09-11T12:54:25.183Z,2.60
2022-09-11T12:56:54.531Z,3.50
2022-09-11T12:59:25.758Z,3.00
2022-09-11T13:01:54.469Z,3.30
2022-09-11T13:04:25.051Z,4.30
2022-09-11T13:06:56.422Z,3.30
2022-09-11T13:09:27.845Z,3.37
2022-09-11T13:11:56.623Z,3.50
2022-09-11T13:14:45.903Z,3.13
2022-09-11T13:17:15.374Z,3.70
2022-09-11T13:19:43.846Z,3.53
2022-09-11T13:22:27.640Z,3.30
2022-09-11T13:25:06.473Z,2.93
2022-09-11T13:27:37.488Z,3.27
2022-09-11T13:30:07.380Z,2.63
2022-09-11T13:32:36.532Z,4.63
2022-09-11T13:35:07.878Z,3.17
2022-09-11T13:37:40.926Z,3.83
2022-09-11T13:40:17.261Z,3.07
2022-09-11T13:42:45.531Z,2.93
2022-09-11T13:45:17.611Z,3.93
2022-09-11T13:47:46.004Z,3.77
2022-09-11T13:50:15.485Z,3.10
2022-09-11T13:52:46.433Z,3.07
2022-09-11T13:55:19.039Z,2.57
2022-09-11T13:57:54.483Z,2.50
2022-09-11T14:00:42.047Z,3.27
2022-09-11T14:03:18.095Z,2.90
2022-09-11T14:05:50.213Z,2.73
2022-09-11T14:08:25.133Z,2.60
2022-09-11T14:10:55.028Z,2.60
2022-09-11T14:13:27.613Z,2.40
2022-09-11T14:15:58.483Z,2.10
2022-09-11T14:18:29.422Z,2.27
2022-09-11T14:20:59.241Z,2.53
2022-09-11T14:23:29.667Z,2.17
2022-09-11T14:26:08.527Z,2.60
2022-09-11T14:28:38.371Z,2.10
2022-09-11T14:31:07.925Z,2.17
2022-09-11T14:33:36.499Z,2.43
2022-09-11T14:36:07.902Z,2.80
2022-09-11T14:38:39.565Z,2.20
2022-09-11T14:41:08.733Z,2.47
2022-09-11T14:43:38.984Z,2.33
2022-09-11T14:46:07.382Z,2.47
2022-09-11T14:48:36.538Z,1.80
2022-09-11T14:51:12.729Z,2.27
2022-09-11T14:53:43.933Z,2.10
2022-09-11T14:56:12.310Z,2.80
2022-09-11T14:58:40.554Z,2.40
2022-09-11T15:01:08.867Z,2.07
2022-09-11T15:03:37.152Z,2.20
2022-09-11T15:06:05.481Z,2.23
2022-09-11T15:08:33.705Z,1.97
2022-09-11T15:11:03.289Z,2.37
2022-09-11T15:13:31.956Z,3.07
2022-09-11T15:16:01.288Z,2.17
2022-09-11T15:18:29.494Z,2.30
2022-09-11T15:20:57.724Z,2.47
2022-09-11T15:23:25.958Z,2.80
2022-09-11T15:26:01.557Z,3.07
2022-09-11T15:28:32.314Z,3.37
2022-09-11T15:31:01.783Z,5.03
2022-09-11T15:33:30.737Z,3.93
2022-09-11T15:36:02.901Z,2.97
2022-09-11T15:38:32.031Z,3.47
2022-09-11T15:41:00.539Z,3.03
2022-09-11T15:43:35.800Z,3.17
2022-09-11T15:46:08.904Z,2.70
2022-09-11T15:48:37.148Z,3.43
2022-09-11T15:51:06.289Z,3.00
2022-09-11T15:53:37.007Z,3.60
2022-09-11T15:56:06.427Z,4.27
2022-09-11T15:58:35.271Z,3.20
2022-09-11T16:01:04.053Z,3.40
2022-09-11T16:03:34.098Z,5.60
2022-09-11T16:06:02.424Z,5.00
2022-09-11T16:08:30.654Z,4.13
2022-09-11T16:11:01.687Z,3.77
2022-09-11T16:13:31.615Z,4.27
2022-09-11T16:16:03.851Z,3.27
2022-09-11T16:18:32.956Z,3.37
2022-09-11T16:21:02.610Z,3.70
2022-09-11T16:23:30.808Z,3.87
2022-09-11T16:26:03.746Z,4.37
2022-09-11T16:28:31.968Z,3.53
2022-09-11T16:31:00.239Z,3.83
2022-09-11T16:33:29.534Z,4.00
2022-09-11T16:35:58.562Z,3.77
2022-09-11T16:38:29.057Z,3.53
2022-09-11T16:41:03.805Z,3.50
2022-09-11T16:43:32.037Z,3.70
2022-09-11T16:46:00.400Z,3.77
2022-09-11T16:48:29.228Z,4.03
2022-09-11T16:50:57.669Z,3.67
2022-09-11T16:53:26.565Z,3.93
2022-09-11T16:55:56.518Z,3.70
2022-09-11T16:58:25.014Z,3.77
2022-09-11T17:00:54.075Z,5.00
2022-09-11T17:03:23.081Z,3.83
2022-09-11T17:05:51.730Z,4.37
2022-09-11T17:08:21.331Z,4.10
2022-09-11T17:10:50.245Z,5.93
2022-09-11T17:13:19.807Z,3.83
2022-09-11T17:15:48.154Z,3.83
2022-09-11T17:18:16.413Z,4.17
2022-09-11T17:20:44.806Z,4.00
2022-09-11T17:23:13.047Z,3.57
2022-09-11T17:25:42.232Z,3.43
2022-09-11T17:28:10.516Z,3.40
2022-09-11T17:30:40.236Z,3.27
2022-09-11T17:33:08.734Z,3.73
2022-09-11T17:35:37.555Z,4.23
2022-09-11T17:38:05.780Z,4.80
2022-09-11T17:40:34.368Z,3.40
2022-09-11T17:43:02.653Z,4.43
2022-09-11T17:45:31.234Z,4.10
2022-09-11T17:48:01.597Z,3.50
2022-09-11T17:50:29.855Z,4.30
2022-09-11T17:52:58.099Z,4.87
2022-09-11T17:55:26.349Z,4.77
2022-09-11T17:57:54.871Z,5.57
2022-09-11T18:00:23.308Z,4.20
2022-09-11T18:02:52.774Z,4.47
2022-09-11T18:05:22.613Z,4.40
2022-09-11T18:07:51.396Z,4.50
2022-09-11T18:10:20.588Z,3.70
2022-09-11T18:12:49.217Z,3.67
2022-09-11T18:15:17.627Z,4.53
2022-09-11T18:17:47.711Z,3.50
2022-09-11T18:20:17.711Z,3.97
2022-09-11T18:22:49.692Z,4.40
2022-09-11T18:25:25.020Z,4.97
2022-09-11T18:27:54.754Z,5.17
2022-09-11T18:30:23.020Z,4.50
2022-09-11T18:32:51.251Z,4.50
2022-09-11T18:35:19.646Z,4.50
2022-09-11T18:37:49.277Z,5.53
2022-09-11T18:40:17.703Z,4.93
2022-09-11T18:42:45.976Z,5.07
2022-09-11T18:45:14.234Z,4.60
2022-09-11T18:47:43.447Z,5.03
2022-09-11T18:50:11.879Z,3.77
2022-09-11T18:52:41.106Z,5.90
2022-09-11T18:55:12.156Z,4.30
2022-09-11T18:57:42.390Z,5.30
2022-09-11T19:00:15.604Z,4.40
2022-09-11T19:02:43.844Z,4.33
2022-09-11T19:05:12.195Z,4.23
2022-09-11T19:07:40.453Z,4.60
2022-09-11T19:10:09.023Z,4.50
2022-09-11T19:12:38.800Z,4.90
2022-09-11T19:15:07.562Z,4.90
2022-09-11T19:17:36.686Z,4.30
2022-09-11T19:20:06.023Z,5.13
2022-09-11T19:22:34.226Z,4.87
2022-09-11T19:25:02.449Z,4.87
2022-09-11T19:27:31.652Z,5.70
2022-09-11T19:30:01.238Z,4.73
2022-09-11T19:32:31.777Z,3.60
2022-09-11T19:35:00.448Z,4.70
2022-09-11T19:37:29.260Z,4.07
2022-09-11T19:40:00.322Z,4.60
2022-09-11T19:42:29.194Z,5.43
2022-09-11T19:44:57.423Z,3.73
2022-09-11T19:47:27.141Z,5.40
2022-09-11T19:49:55.363Z,4.90
2022-09-11T19:52:24.054Z,4.97
2022-09-11T19:54:52.272Z,3.90
2022-09-11T19:57:20.531Z,4.37
2022-09-11T19:59:48.744Z,5.67
2022-09-11T20:02:17.287Z,4.57
2022-09-11T20:04:47.015Z,4.37
2022-09-11T20:07:15.242Z,3.87
2022-09-11T20:09:43.490Z,4.77
2022-09-11T20:12:11.714Z,3.90
2022-09-11T20:14:42.574Z,3.80
2022-09-11T20:17:11.130Z,3.50
2022-09-11T20:19:40.668Z,4.60
2022-09-11T20:22:10.376Z,3.27
2022-09-11T20:24:38.574Z,4.43
2022-09-11T20:27:06.890Z,5.00
2022-09-11T20:29:35.156Z,4.10
2022-09-11T20:32:03.529Z,4.80
2022-09-11T20:34:32.005Z,4.47
2022-09-11T20:37:01.107Z,4.63
2022-09-11T20:39:30.734Z,4.73
2022-09-11T20:42:00.598Z,4.60
2022-09-11T20:44:29.189Z,4.57
2022-09-11T20:46:58.147Z,4.90
2022-09-11T20:49:26.679Z,4.90
2022-09-11T20:51:54.901Z,6.07
2022-09-11T20:54:23.187Z,4.40
2022-09-11T20:56:52.772Z,5.57
2022-09-11T20:59:20.983Z,4.70
2022-09-11T21:01:49.383Z,5.50
2022-09-11T21:04:17.675Z,4.73
2022-09-11T21:06:47.523Z,4.17
2022-09-11T21:09:15.858Z,4.37
2022-09-11T21:11:44.080Z,4.50
2022-09-11T21:14:14.244Z,3.90
2022-09-11T21:16:42.617Z,5.10
2022-09-11T21:19:11.416Z,4.93
2022-09-11T21:21:40.110Z,4.40
2022-09-11T21:24:09.538Z,4.97
2022-09-11T21:26:38.093Z,4.30
2022-09-11T21:29:07.490Z,5.10
2022-09-11T21:31:37.408Z,4.83
2022-09-11T21:34:05.725Z,4.87
2022-09-11T21:36:34.469Z,5.50
2022-09-11T21:39:02.780Z,3.90
2022-09-11T21:41:31.144Z,5.27
2022-09-11T21:43:59.416Z,4.07
2022-09-11T21:46:27.655Z,3.67
2022-09-11T21:48:57.351Z,4.50
2022-09-11T21:51:25.546Z,3.07
2022-09-11T21:53:58.125Z,4.40
2022-09-11T21:56:27.068Z,4.47
2022-09-11T21:58:55.913Z,5.33
2022-09-11T22:01:24.927Z,5.00
2022-09-11T22:03:54.200Z,4.93
2022-09-11T22:06:24.519Z,3.63
2022-09-11T22:08:53.399Z,4.63
2022-09-11T22:11:21.985Z,4.20
2022-09-11T22:13:52.808Z,4.67
2022-09-11T22:16:21.356Z,4.53
2022-09-11T22:18:50.493Z,4.27
2022-09-11T22:21:18.766Z,5.93
2022-09-11T22:23:48.370Z,3.70
2022-09-11T22:26:17.555Z,4.00
2022-09-11T22:28:45.914Z,4.10
2022-09-11T22:31:15.796Z,3.67
2022-09-11T22:33:44.181Z,3.50
2022-09-11T22:36:13.692Z,5.77
2022-09-11T22:38:42.847Z,4.17
2022-09-11T22:41:12.407Z,4.90
2022-09-11T22:43:40.629Z,5.17
2022-09-11T22:46:08.924Z,4.07
2022-09-11T22:48:37.579Z,4.10
2022-09-11T22:51:06.057Z,4.33
2022-09-11T22:53:34.584Z,3.73
2022-09-11T22:56:03.183Z,4.37
2022-09-11T22:58:32.928Z,4.73
2022-09-11T23:01:03.697Z,4.53
2022-09-11T23:03:32.024Z,4.67
2022-09-11T23:06:18.601Z,3.60
2022-09-11T23:08:47.298Z,3.50
2022-09-11T23:11:16.934Z,3.67
2022-09-11T23:13:48.591Z,5.00
2022-09-11T23:16:18.338Z,4.20
2022-09-11T23:18:47.167Z,4.93
2022-09-11T23:21:15.774Z,4.27
2022-09-11T23:23:45.212Z,4.47
2022-09-11T23:26:14.724Z,4.60
2022-09-11T23:28:43.297Z,5.90
2022-09-11T23:31:13.573Z,4.80
2022-09-11T23:33:42.172Z,4.30
2022-09-11T23:36:12.017Z,4.27
2022-09-11T23:38:40.586Z,4.40
2022-09-11T23:41:08.826Z,4.63
2022-09-11T23:43:37.107Z,4.77
2022-09-11T23:46:05.603Z,4.40
2022-09-11T23:48:35.535Z,3.83
2022-09-11T23:51:03.804Z,4.33
2022-09-11T23:53:32.093Z,4.47
2022-09-11T23:56:00.756Z,4.60
2022-09-11T23:58:28.979Z,3.50
